KGTR/GTR METAR and TAF weather

Enter ICAO airport designator
Station Type Date Time Source
KGTR METAR 2018/12/11 21:56 UTC NOAA

KGTR 112156Z 14003KT 10SM CLR 09/M01 A3034 RMK AO2 SLPNO T00901010 $


Station Type Date Time Source
KGTR Decoded METAR 2018/12/11 21:56 UTC NOAA

Columbus/West Point/Starkville, Golden Triangle Regional Airport, MS, United States (KGTR) 33-27N 088-35W
Dec 11, 2018 - 04:56 PM EST / 2018.12.11 2156 UTC
Wind: from the SE (140 degrees) at 3 MPH (3 KT):0
Visibility: 10 mile(s):0
Sky conditions: clear
Temperature: 48.2 F (9.0 C)
Dew Point: 30.2 F (-1.0 C)
Relative Humidity: 49%
Pressure (altimeter): 30.34 in. Hg (1027 hPa)
ob: KGTR 112156Z 14003KT 10SM CLR 09/M01 A3034 RMK AO2 SLPNO T00901010
cycle: 22

Station Type Date Time Source
KGTR TAF 2018/12/11 18:22 UTC NOAA

TAF KGTR 111720Z 1118/1218 20005KT P6SM SCT250


Example: see airport list